sensor_id;sensor_type;location;lat;lon;timestamp;pressure;altitude;pressure_sealevel;temperature;humidity
48874;BME280;66155;46.204;5.220;2023-02-13T00:02:38;100446.53;;;1.84;66.66
48874;BME280;66155;46.204;5.220;2023-02-13T00:07:39;100447.94;;;1.78;66.39
48874;BME280;66155;46.204;5.220;2023-02-13T00:12:40;100450.56;;;1.68;66.12
48874;BME280;66155;46.204;5.220;2023-02-13T00:17:40;100444.25;;;1.63;66.33
48874;BME280;66155;46.204;5.220;2023-02-13T00:22:41;100443.34;;;1.54;66.74
48874;BME280;66155;46.204;5.220;2023-02-13T00:27:41;100449.94;;;1.39;66.89
48874;BME280;66155;46.204;5.220;2023-02-13T00:32:42;100444.63;;;1.40;66.42
48874;BME280;66155;46.204;5.220;2023-02-13T00:37:42;100442.25;;;1.29;66.57
48874;BME280;66155;46.204;5.220;2023-02-13T00:42:43;100451.88;;;1.27;66.88
48874;BME280;66155;46.204;5.220;2023-02-13T00:47:43;100439.16;;;1.25;66.27
48874;BME280;66155;46.204;5.220;2023-02-13T00:52:44;100436.22;;;1.20;66.91
48874;BME280;66155;46.204;5.220;2023-02-13T00:57:44;100441.34;;;1.20;66.54
48874;BME280;66155;46.204;5.220;2023-02-13T01:02:45;100440.56;;;1.20;65.97
48874;BME280;66155;46.204;5.220;2023-02-13T01:07:47;100435.81;;;1.15;66.74
48874;BME280;66155;46.204;5.220;2023-02-13T01:12:47;100445.72;;;1.10;66.25
48874;BME280;66155;46.204;5.220;2023-02-13T01:17:48;100447.88;;;1.05;66.11
48874;BME280;66155;46.204;5.220;2023-02-13T01:22:48;100445.63;;;1.02;66.40
48874;BME280;66155;46.204;5.220;2023-02-13T01:27:49;100449.31;;;0.89;66.92
48874;BME280;66155;46.204;5.220;2023-02-13T01:32:50;100460.50;;;0.88;66.31
48874;BME280;66155;46.204;5.220;2023-02-13T01:37:51;100455.81;;;0.84;66.07
48874;BME280;66155;46.204;5.220;2023-02-13T01:42:51;100453.25;;;0.84;66.35
48874;BME280;66155;46.204;5.220;2023-02-13T01:48:06;100456.09;;;0.81;66.71
48874;BME280;66155;46.204;5.220;2023-02-13T01:58:22;100447.72;;;0.69;66.19
48874;BME280;66155;46.204;5.220;2023-02-13T02:03:38;100457.72;;;0.72;65.96
48874;BME280;66155;46.204;5.220;2023-02-13T02:08:41;100457.44;;;0.75;66.06
48874;BME280;66155;46.204;5.220;2023-02-13T02:13:43;100458.66;;;0.71;66.77
48874;BME280;66155;46.204;5.220;2023-02-13T02:18:44;100459.34;;;0.73;66.13
48874;BME280;66155;46.204;5.220;2023-02-13T02:24:14;100443.66;;;0.76;66.45
48874;BME280;66155;46.204;5.220;2023-02-13T02:29:56;100450.69;;;0.74;66.37
48874;BME280;66155;46.204;5.220;2023-02-13T02:35:06;100448.25;;;0.72;66.01
48874;BME280;66155;46.204;5.220;2023-02-13T02:50:51;100455.97;;;0.72;66.43
48874;BME280;66155;46.204;5.220;2023-02-13T03:00:54;100455.16;;;0.72;65.53
48874;BME280;66155;46.204;5.220;2023-02-13T03:11:25;100452.75;;;0.61;66.27
48874;BME280;66155;46.204;5.220;2023-02-13T03:16:45;100456.25;;;0.60;66.39
48874;BME280;66155;46.204;5.220;2023-02-13T03:22:44;100455.59;;;0.57;66.62
48874;BME280;66155;46.204;5.220;2023-02-13T03:28:39;100452.34;;;0.55;66.37
48874;BME280;66155;46.204;5.220;2023-02-13T03:34:03;100455.19;;;0.52;66.13
48874;BME280;66155;46.204;5.220;2023-02-13T03:44:53;100448.44;;;0.51;66.59
48874;BME280;66155;46.204;5.220;2023-02-13T03:50:15;100440.06;;;0.49;65.83
48874;BME280;66155;46.204;5.220;2023-02-13T03:55:36;100449.78;;;0.46;66.20
48874;BME280;66155;46.204;5.220;2023-02-13T04:00:59;100446.44;;;0.45;65.48
48874;BME280;66155;46.204;5.220;2023-02-13T04:06:04;100448.72;;;0.38;65.70
48874;BME280;66155;46.204;5.220;2023-02-13T04:11:12;100444.56;;;0.37;66.12
48874;BME280;66155;46.204;5.220;2023-02-13T04:16:21;100448.19;;;0.35;66.15
48874;BME280;66155;46.204;5.220;2023-02-13T04:21:23;100442.78;;;0.38;65.53
48874;BME280;66155;46.204;5.220;2023-02-13T04:26:34;100454.28;;;0.34;66.10
48874;BME280;66155;46.204;5.220;2023-02-13T04:31:35;100455.06;;;0.34;65.82
48874;BME280;66155;46.204;5.220;2023-02-13T04:36:35;100457.38;;;0.28;66.02
48874;BME280;66155;46.204;5.220;2023-02-13T04:41:36;100456.69;;;0.26;66.24
48874;BME280;66155;46.204;5.220;2023-02-13T04:46:36;100459.00;;;0.29;65.45
48874;BME280;66155;46.204;5.220;2023-02-13T04:51:36;100453.03;;;0.28;65.91
48874;BME280;66155;46.204;5.220;2023-02-13T04:56:37;100461.69;;;0.27;65.61
48874;BME280;66155;46.204;5.220;2023-02-13T05:01:37;100452.09;;;0.29;65.39
48874;BME280;66155;46.204;5.220;2023-02-13T05:06:38;100450.91;;;0.24;65.76
48874;BME280;66155;46.204;5.220;2023-02-13T05:11:42;100453.19;;;0.17;65.50
48874;BME280;66155;46.204;5.220;2023-02-13T05:16:42;100455.50;;;0.20;65.51
48874;BME280;66155;46.204;5.220;2023-02-13T05:21:43;100458.56;;;0.14;65.42
48874;BME280;66155;46.204;5.220;2023-02-13T05:27:02;100450.63;;;0.17;66.20
48874;BME280;66155;46.204;5.220;2023-02-13T05:32:02;100457.78;;;0.13;65.53
48874;BME280;66155;46.204;5.220;2023-02-13T05:37:03;100460.19;;;0.05;65.88
48874;BME280;66155;46.204;5.220;2023-02-13T05:42:03;100461.94;;;0.05;65.88
48874;BME280;66155;46.204;5.220;2023-02-13T05:47:04;100456.44;;;0.09;65.40
48874;BME280;66155;46.204;5.220;2023-02-13T05:52:05;100459.00;;;0.09;65.60
48874;BME280;66155;46.204;5.220;2023-02-13T05:57:05;100459.78;;;0.10;65.61
48874;BME280;66155;46.204;5.220;2023-02-13T06:02:06;100458.44;;;0.06;66.80
48874;BME280;66155;46.204;5.220;2023-02-13T06:07:06;100460.88;;;0.07;66.11
48874;BME280;66155;46.204;5.220;2023-02-13T06:12:06;100459.66;;;0.11;66.33
48874;BME280;66155;46.204;5.220;2023-02-13T06:17:07;100464.53;;;0.14;65.93
48874;BME280;66155;46.204;5.220;2023-02-13T06:22:07;100468.81;;;0.14;65.87
48874;BME280;66155;46.204;5.220;2023-02-13T06:27:08;100475.16;;;0.19;66.03
48874;BME280;66155;46.204;5.220;2023-02-13T06:32:08;100475.97;;;0.30;65.93
48874;BME280;66155;46.204;5.220;2023-02-13T06:37:08;100475.59;;;0.34;66.36
48874;BME280;66155;46.204;5.220;2023-02-13T06:42:09;100483.81;;;0.38;66.61
48874;BME280;66155;46.204;5.220;2023-02-13T06:47:09;100488.00;;;0.49;66.14
48874;BME280;66155;46.204;5.220;2023-02-13T06:52:10;100491.75;;;0.54;66.37
48874;BME280;66155;46.204;5.220;2023-02-13T06:57:10;100494.47;;;0.63;65.71
48874;BME280;66155;46.204;5.220;2023-02-13T07:02:11;100492.84;;;0.62;66.06
48874;BME280;66155;46.204;5.220;2023-02-13T07:07:12;100504.28;;;0.67;65.87
48874;BME280;66155;46.204;5.220;2023-02-13T07:12:12;100500.94;;;0.77;65.43
48874;BME280;66155;46.204;5.220;2023-02-13T07:17:12;100509.97;;;0.81;65.84
48874;BME280;66155;46.204;5.220;2023-02-13T07:22:13;100513.06;;;0.84;65.62
48874;BME280;66155;46.204;5.220;2023-02-13T07:27:14;100525.31;;;0.90;65.21
48874;BME280;66155;46.204;5.220;2023-02-13T07:32:14;100525.31;;;1.00;65.49
48874;BME280;66155;46.204;5.220;2023-02-13T07:37:14;100525.28;;;1.10;64.90
48874;BME280;66155;46.204;5.220;2023-02-13T07:42:15;100531.34;;;1.19;64.44
48874;BME280;66155;46.204;5.220;2023-02-13T07:47:15;100537.41;;;1.27;64.70
48874;BME280;66155;46.204;5.220;2023-02-13T07:52:16;100530.75;;;1.35;64.17
48874;BME280;66155;46.204;5.220;2023-02-13T07:57:16;100547.66;;;1.37;64.34
48874;BME280;66155;46.204;5.220;2023-02-13T08:02:17;100543.97;;;1.49;64.17
48874;BME280;66155;46.204;5.220;2023-02-13T08:07:17;100548.41;;;1.47;64.34
48874;BME280;66155;46.204;5.220;2023-02-13T08:12:17;100545.41;;;1.62;63.90
48874;BME280;66155;46.204;5.220;2023-02-13T08:17:18;100550.34;;;1.73;63.87
48874;BME280;66155;46.204;5.220;2023-02-13T08:22:18;100550.88;;;1.77;64.07
48874;BME280;66155;46.204;5.220;2023-02-13T08:27:19;100552.97;;;1.91;63.73
48874;BME280;66155;46.204;5.220;2023-02-13T08:32:19;100552.09;;;2.00;64.26
48874;BME280;66155;46.204;5.220;2023-02-13T08:37:19;100546.97;;;2.18;63.95
48874;BME280;66155;46.204;5.220;2023-02-13T08:42:20;100554.34;;;2.31;63.94
48874;BME280;66155;46.204;5.220;2023-02-13T08:47:20;100553.84;;;2.45;64.04
48874;BME280;66155;46.204;5.220;2023-02-13T08:52:21;100551.97;;;2.56;64.32
48874;BME280;66155;46.204;5.220;2023-02-13T08:57:21;100551.41;;;2.62;64.22
48874;BME280;66155;46.204;5.220;2023-02-13T09:02:22;100553.59;;;2.75;64.00
48874;BME280;66155;46.204;5.220;2023-02-13T09:07:22;100559.97;;;2.89;64.14
48874;BME280;66155;46.204;5.220;2023-02-13T09:12:22;100561.06;;;3.04;63.89
48874;BME280;66155;46.204;5.220;2023-02-13T09:17:23;100549.88;;;3.21;63.94
48874;BME280;66155;46.204;5.220;2023-02-13T09:22:23;100555.44;;;3.35;64.05
48874;BME280;66155;46.204;5.220;2023-02-13T09:27:24;100552.94;;;3.51;63.63
48874;BME280;66155;46.204;5.220;2023-02-13T09:32:25;100557.34;;;3.67;63.81
48874;BME280;66155;46.204;5.220;2023-02-13T09:37:26;100560.81;;;3.84;64.03
48874;BME280;66155;46.204;5.220;2023-02-13T09:42:30;100566.16;;;3.99;64.15
48874;BME280;66155;46.204;5.220;2023-02-13T09:47:36;100555.59;;;4.18;63.90
48874;BME280;66155;46.204;5.220;2023-02-13T09:52:38;100556.44;;;4.35;63.48
48874;BME280;66155;46.204;5.220;2023-02-13T10:18:33;100555.72;;;5.24;63.24
48874;BME280;66155;46.204;5.220;2023-02-13T10:23:44;100562.31;;;5.34;62.48
48874;BME280;66155;46.204;5.220;2023-02-13T10:29:36;100561.47;;;5.50;62.58
48874;BME280;66155;46.204;5.220;2023-02-13T10:34:36;100554.59;;;5.74;61.98
48874;BME280;66155;46.204;5.220;2023-02-13T10:39:42;100560.66;;;5.89;62.49
48874;BME280;66155;46.204;5.220;2023-02-13T10:44:54;100555.63;;;6.04;62.11
48874;BME280;66155;46.204;5.220;2023-02-13T10:50:21;100550.50;;;6.19;61.79
48874;BME280;66155;46.204;5.220;2023-02-13T11:05:53;100537.63;;;6.57;61.50
48874;BME280;66155;46.204;5.220;2023-02-13T11:10:53;100528.28;;;6.71;61.63
48874;BME280;66155;46.204;5.220;2023-02-13T11:16:08;100526.88;;;6.83;60.89
48874;BME280;66155;46.204;5.220;2023-02-13T11:21:20;100515.19;;;7.02;60.58
48874;BME280;66155;46.204;5.220;2023-02-13T11:26:24;100512.78;;;7.16;60.87
48874;BME280;66155;46.204;5.220;2023-02-13T11:31:29;100502.25;;;7.32;60.31
48874;BME280;66155;46.204;5.220;2023-02-13T11:36:33;100494.97;;;7.42;60.07
48874;BME280;66155;46.204;5.220;2023-02-13T11:41:40;100504.72;;;7.55;59.92
48874;BME280;66155;46.204;5.220;2023-02-13T11:46:49;100501.13;;;7.71;59.65
48874;BME280;66155;46.204;5.220;2023-02-13T11:51:58;100483.44;;;7.81;59.48
48874;BME280;66155;46.204;5.220;2023-02-13T11:57:21;100485.44;;;8.01;58.57
48874;BME280;66155;46.204;5.220;2023-02-13T12:02:22;100486.00;;;8.18;59.17
48874;BME280;66155;46.204;5.220;2023-02-13T12:07:30;100481.66;;;8.25;57.80
48874;BME280;66155;46.204;5.220;2023-02-13T12:12:42;100470.59;;;8.38;57.16
48874;BME280;66155;46.204;5.220;2023-02-13T12:17:45;100477.75;;;8.57;57.37
48874;BME280;66155;46.204;5.220;2023-02-13T12:28:16;100463.19;;;8.91;57.36
48874;BME280;66155;46.204;5.220;2023-02-13T12:33:36;100460.91;;;9.10;57.57
48874;BME280;66155;46.204;5.220;2023-02-13T12:44:27;100446.41;;;9.42;55.61
48874;BME280;66155;46.204;5.220;2023-02-13T13:11:12;100415.88;;;10.58;55.42
48874;BME280;66155;46.204;5.220;2023-02-13T13:21:43;100392.00;;;12.40;51.56
48874;BME280;66155;46.204;5.220;2023-02-13T13:26:48;100393.03;;;12.76;50.60
48874;BME280;66155;46.204;5.220;2023-02-13T13:31:54;100383.34;;;12.95;52.37
48874;BME280;66155;46.204;5.220;2023-02-13T13:37:06;100381.03;;;13.36;51.72
48874;BME280;66155;46.204;5.220;2023-02-13T13:47:50;100361.38;;;15.78;46.47
48874;BME280;66155;46.204;5.220;2023-02-13T13:53:12;100345.69;;;20.35;38.43
48874;BME280;66155;46.204;5.220;2023-02-13T13:58:43;100329.78;;;24.25;32.20
48874;BME280;66155;46.204;5.220;2023-02-13T14:03:45;100326.44;;;26.31;29.23
48874;BME280;66155;46.204;5.220;2023-02-13T14:19:35;100310.94;;;30.23;24.45
48874;BME280;66155;46.204;5.220;2023-02-13T14:24:38;100311.66;;;31.33;23.64
48874;BME280;66155;46.204;5.220;2023-02-13T14:29:46;100308.97;;;31.80;23.01
48874;BME280;66155;46.204;5.220;2023-02-13T14:34:53;100299.63;;;32.68;21.40
48874;BME280;66155;46.204;5.220;2023-02-13T14:45:20;100294.88;;;33.50;20.57
48874;BME280;66155;46.204;5.220;2023-02-13T14:50:27;100287.53;;;33.47;19.21
48874;BME280;66155;46.204;5.220;2023-02-13T14:55:37;100295.38;;;33.10;20.02
48874;BME280;66155;46.204;5.220;2023-02-13T15:00:45;100289.75;;;32.37;20.11
48874;BME280;66155;46.204;5.220;2023-02-13T15:05:52;100290.47;;;32.53;19.43
48874;BME280;66155;46.204;5.220;2023-02-13T15:10:55;100284.72;;;32.16;19.06
48874;BME280;66155;46.204;5.220;2023-02-13T15:21:01;100283.00;;;32.27;19.26
48874;BME280;66155;46.204;5.220;2023-02-13T15:26:04;100282.63;;;31.42;18.53
48874;BME280;66155;46.204;5.220;2023-02-13T15:31:20;100281.50;;;31.11;18.74
48874;BME280;66155;46.204;5.220;2023-02-13T15:36:24;100281.34;;;30.47;19.78
48874;BME280;66155;46.204;5.220;2023-02-13T15:41:31;100276.38;;;29.72;20.10
48874;BME280;66155;46.204;5.220;2023-02-13T15:46:36;100289.50;;;24.54;24.54
48874;BME280;66155;46.204;5.220;2023-02-13T15:51:38;100289.81;;;21.60;27.26
48874;BME280;66155;46.204;5.220;2023-02-13T15:56:43;100296.59;;;19.93;29.08
48874;BME280;66155;46.204;5.220;2023-02-13T16:01:45;100288.91;;;18.68;30.73
48874;BME280;66155;46.204;5.220;2023-02-13T16:06:46;100288.97;;;18.10;31.13
48874;BME280;66155;46.204;5.220;2023-02-13T16:11:49;100295.16;;;17.46;31.92
48874;BME280;66155;46.204;5.220;2023-02-13T16:17:05;100296.91;;;17.03;32.47
48874;BME280;66155;46.204;5.220;2023-02-13T16:27:32;100294.09;;;16.16;33.89
48874;BME280;66155;46.204;5.220;2023-02-13T16:32:34;100300.84;;;15.39;36.89
48874;BME280;66155;46.204;5.220;2023-02-13T16:37:49;100309.97;;;14.62;40.58
48874;BME280;66155;46.204;5.220;2023-02-13T16:42:50;100314.03;;;14.17;40.31
48874;BME280;66155;46.204;5.220;2023-02-13T16:47:59;100310.53;;;13.64;43.81
48874;BME280;66155;46.204;5.220;2023-02-13T16:53:02;100316.97;;;13.20;43.04
48874;BME280;66155;46.204;5.220;2023-02-13T16:58:03;100324.88;;;12.71;45.53
48874;BME280;66155;46.204;5.220;2023-02-13T17:03:07;100325.31;;;12.31;46.66
48874;BME280;66155;46.204;5.220;2023-02-13T17:08:08;100319.59;;;11.97;46.17
48874;BME280;66155;46.204;5.220;2023-02-13T17:18:12;100344.56;;;11.36;47.86
48874;BME280;66155;46.204;5.220;2023-02-13T17:23:18;100349.72;;;11.11;48.25
48874;BME280;66155;46.204;5.220;2023-02-13T17:28:25;100347.63;;;10.88;50.61
48874;BME280;66155;46.204;5.220;2023-02-13T17:33:30;100350.47;;;10.73;50.49
48874;BME280;66155;46.204;5.220;2023-02-13T17:38:34;100365.38;;;10.59;48.99
48874;BME280;66155;46.204;5.220;2023-02-13T17:43:35;100361.78;;;10.40;50.59
48874;BME280;66155;46.204;5.220;2023-02-13T17:48:35;100360.97;;;10.26;51.15
48874;BME280;66155;46.204;5.220;2023-02-13T17:53:36;100369.63;;;10.13;51.27
48874;BME280;66155;46.204;5.220;2023-02-13T17:58:36;100371.22;;;10.01;52.68
48874;BME280;66155;46.204;5.220;2023-02-13T18:03:37;100364.44;;;9.93;52.25
48874;BME280;66155;46.204;5.220;2023-02-13T18:08:38;100367.81;;;9.87;52.96
48874;BME280;66155;46.204;5.220;2023-02-13T18:13:38;100380.00;;;9.73;52.79
48874;BME280;66155;46.204;5.220;2023-02-13T18:18:43;100375.22;;;9.63;53.09
48874;BME280;66155;46.204;5.220;2023-02-13T18:23:44;100374.59;;;9.55;52.82
48874;BME280;66155;46.204;5.220;2023-02-13T18:28:44;100370.16;;;9.48;53.44
48874;BME280;66155;46.204;5.220;2023-02-13T18:33:45;100375.78;;;9.39;53.14
48874;BME280;66155;46.204;5.220;2023-02-13T18:38:45;100367.16;;;9.31;53.17
48874;BME280;66155;46.204;5.220;2023-02-13T18:43:46;100369.91;;;9.23;53.87
48874;BME280;66155;46.204;5.220;2023-02-13T18:48:46;100366.91;;;9.20;54.93
48874;BME280;66155;46.204;5.220;2023-02-13T18:53:47;100378.09;;;9.13;54.56
48874;BME280;66155;46.204;5.220;2023-02-13T18:58:49;100371.28;;;9.12;53.93
48874;BME280;66155;46.204;5.220;2023-02-13T19:03:51;100370.69;;;9.10;54.55
48874;BME280;66155;46.204;5.220;2023-02-13T19:08:53;100372.25;;;9.05;55.03
48874;BME280;66155;46.204;5.220;2023-02-13T19:13:56;100373.84;;;8.99;55.24
48874;BME280;66155;46.204;5.220;2023-02-13T19:19:01;100376.44;;;8.99;55.09
48874;BME280;66155;46.204;5.220;2023-02-13T19:24:03;100372.41;;;8.97;55.03
48874;BME280;66155;46.204;5.220;2023-02-13T19:29:04;100367.22;;;8.97;54.58
48874;BME280;66155;46.204;5.220;2023-02-13T19:34:04;100380.00;;;8.91;55.14
48874;BME280;66155;46.204;5.220;2023-02-13T19:39:05;100383.19;;;8.87;55.65
48874;BME280;66155;46.204;5.220;2023-02-13T19:44:08;100378.38;;;8.84;55.49
48874;BME280;66155;46.204;5.220;2023-02-13T19:49:08;100379.94;;;8.78;55.41
48874;BME280;66155;46.204;5.220;2023-02-13T19:54:09;100377.31;;;8.71;55.46
48874;BME280;66155;46.204;5.220;2023-02-13T19:59:10;100384.09;;;8.66;55.49
48874;BME280;66155;46.204;5.220;2023-02-13T20:04:12;100390.00;;;8.53;56.24
48874;BME280;66155;46.204;5.220;2023-02-13T20:09:12;100395.34;;;8.45;56.29
48874;BME280;66155;46.204;5.220;2023-02-13T20:14:13;100389.09;;;8.39;56.29
48874;BME280;66155;46.204;5.220;2023-02-13T20:19:14;100397.19;;;8.29;56.22
48874;BME280;66155;46.204;5.220;2023-02-13T20:24:15;100393.94;;;8.21;56.37
48874;BME280;66155;46.204;5.220;2023-02-13T20:29:15;100394.47;;;8.09;56.93
48874;BME280;66155;46.204;5.220;2023-02-13T20:34:16;100394.97;;;7.98;57.40
48874;BME280;66155;46.204;5.220;2023-02-13T20:39:16;100394.72;;;7.93;57.46
48874;BME280;66155;46.204;5.220;2023-02-13T20:44:17;100399.75;;;7.94;56.82
48874;BME280;66155;46.204;5.220;2023-02-13T20:49:22;100404.31;;;7.92;57.38
48874;BME280;66155;46.204;5.220;2023-02-13T20:54:22;100411.22;;;7.85;57.06
48874;BME280;66155;46.204;5.220;2023-02-13T20:59:23;100413.16;;;7.76;58.29
48874;BME280;66155;46.204;5.220;2023-02-13T21:04:23;100409.72;;;7.76;58.17
48874;BME280;66155;46.204;5.220;2023-02-13T21:09:23;100404.94;;;7.73;58.33
48874;BME280;66155;46.204;5.220;2023-02-13T21:14:25;100408.63;;;7.64;60.02
48874;BME280;66155;46.204;5.220;2023-02-13T21:19:25;100403.06;;;7.67;59.20
48874;BME280;66155;46.204;5.220;2023-02-13T21:24:25;100416.28;;;7.72;58.12
48874;BME280;66155;46.204;5.220;2023-02-13T21:29:26;100420.53;;;7.58;59.20
48874;BME280;66155;46.204;5.220;2023-02-13T21:34:26;100411.25;;;7.49;58.26
48874;BME280;66155;46.204;5.220;2023-02-13T21:39:27;100415.94;;;7.38;58.55
48874;BME280;66155;46.204;5.220;2023-02-13T21:44:27;100417.03;;;7.29;58.66
48874;BME280;66155;46.204;5.220;2023-02-13T21:49:27;100427.94;;;7.24;58.07
48874;BME280;66155;46.204;5.220;2023-02-13T21:54:28;100430.38;;;7.11;58.50
48874;BME280;66155;46.204;5.220;2023-02-13T21:59:28;100429.06;;;7.00;58.70
48874;BME280;66155;46.204;5.220;2023-02-13T22:04:29;100421.63;;;6.97;58.65
48874;BME280;66155;46.204;5.220;2023-02-13T22:09:29;100421.34;;;6.92;58.64
48874;BME280;66155;46.204;5.220;2023-02-13T22:14:29;100422.88;;;6.87;58.37
48874;BME280;66155;46.204;5.220;2023-02-13T22:19:30;100420.81;;;6.82;58.19
48874;BME280;66155;46.204;5.220;2023-02-13T22:24:30;100423.41;;;6.82;58.06
48874;BME280;66155;46.204;5.220;2023-02-13T22:29:31;100415.00;;;6.80;57.95
48874;BME280;66155;46.204;5.220;2023-02-13T22:34:32;100415.91;;;6.72;58.23
48874;BME280;66155;46.204;5.220;2023-02-13T22:39:33;100417.06;;;6.70;57.97
48874;BME280;66155;46.204;5.220;2023-02-13T22:44:33;100408.66;;;6.68;57.64
48874;BME280;66155;46.204;5.220;2023-02-13T22:49:34;100403.59;;;6.59;58.15
48874;BME280;66155;46.204;5.220;2023-02-13T22:54:36;100405.72;;;6.56;57.94
48874;BME280;66155;46.204;5.220;2023-02-13T22:59:36;100404.91;;;6.55;57.48
48874;BME280;66155;46.204;5.220;2023-02-13T23:04:36;100417.06;;;6.55;57.44
48874;BME280;66155;46.204;5.220;2023-02-13T23:09:37;100415.53;;;6.45;57.81
48874;BME280;66155;46.204;5.220;2023-02-13T23:14:37;100407.66;;;6.39;57.89
48874;BME280;66155;46.204;5.220;2023-02-13T23:19:38;100416.78;;;6.35;57.86
48874;BME280;66155;46.204;5.220;2023-02-13T23:24:38;100418.91;;;6.31;57.94
48874;BME280;66155;46.204;5.220;2023-02-13T23:29:38;100420.03;;;6.28;57.89
48874;BME280;66155;46.204;5.220;2023-02-13T23:34:39;100416.31;;;6.31;57.55
48874;BME280;66155;46.204;5.220;2023-02-13T23:39:39;100420.50;;;6.32;57.09
48874;BME280;66155;46.204;5.220;2023-02-13T23:44:40;100403.56;;;6.44;56.61
48874;BME280;66155;46.204;5.220;2023-02-13T23:49:40;100407.41;;;6.49;56.45
48874;BME280;66155;46.204;5.220;2023-02-13T23:54:40;100412.66;;;6.40;56.61
48874;BME280;66155;46.204;5.220;2023-02-13T23:59:41;100416.22;;;6.24;57.79
